createdAt,value
2022-11-12T00:00:59.794Z,55.11
2022-11-12T00:03:28.098Z,54.96
2022-11-12T00:05:55.113Z,55.04
2022-11-12T00:08:22.797Z,54.91
2022-11-12T00:10:50.390Z,54.97
2022-11-12T00:13:17.435Z,54.86
2022-11-12T00:15:46.391Z,54.91
2022-11-12T00:18:13.592Z,54.83
2022-11-12T00:20:42.234Z,54.78
2022-11-12T00:23:09.418Z,54.82
2022-11-12T00:25:36.467Z,54.83
2022-11-12T00:28:06.385Z,54.82
2022-11-12T00:30:33.670Z,54.85
2022-11-12T00:33:02.661Z,55.01
2022-11-12T00:35:31.672Z,54.93
2022-11-12T00:38:00.994Z,55.04
2022-11-12T00:40:29.206Z,55.35
2022-11-12T00:42:56.231Z,54.99
2022-11-12T00:45:23.807Z,55.05
2022-11-12T00:47:54.382Z,55.09
2022-11-12T00:50:21.483Z,55.33
2022-11-12T00:52:48.510Z,55.21
2022-11-12T00:55:16.932Z,55.18
2022-11-12T00:57:43.890Z,55.36
2022-11-12T01:00:16.647Z,55.17
2022-11-12T01:02:49.445Z,54.96
2022-11-12T01:05:18.761Z,54.89
2022-11-12T01:07:45.922Z,55.00
2022-11-12T01:10:14.224Z,54.85
2022-11-12T01:12:42.596Z,54.81
2022-11-12T01:15:10.341Z,54.75
2022-11-12T01:17:37.296Z,54.86
2022-11-12T01:20:05.554Z,54.65
2022-11-12T01:22:32.504Z,54.76
2022-11-12T01:24:59.487Z,54.92
2022-11-12T01:27:26.601Z,54.88
2022-11-12T01:29:54.883Z,55.13
2022-11-12T01:32:21.905Z,54.78
2022-11-12T01:34:50.592Z,54.67
2022-11-12T01:37:17.540Z,54.82
2022-11-12T01:39:44.483Z,55.04
2022-11-12T01:42:12.253Z,54.75
2022-11-12T01:44:44.548Z,54.63
2022-11-12T01:47:19.673Z,55.08
2022-11-12T01:49:57.283Z,54.99
2022-11-12T01:52:31.691Z,54.50
2022-11-12T01:55:06.801Z,55.05
2022-11-12T01:57:39.361Z,54.81
2022-11-12T02:00:10.839Z,55.15
2022-11-12T02:02:40.778Z,55.40
2022-11-12T02:05:10.868Z,55.32
2022-11-12T02:07:42.116Z,55.27
2022-11-12T02:10:10.278Z,55.36
2022-11-12T02:12:56.494Z,55.33
2022-11-12T02:15:23.542Z,55.30
2022-11-12T02:17:52.774Z,55.24
2022-11-12T02:20:20.357Z,55.42
2022-11-12T02:22:48.766Z,55.72
2022-11-12T02:25:22.043Z,55.72
2022-11-12T02:27:53.109Z,55.83
2022-11-12T02:30:31.471Z,56.06
2022-11-12T02:32:58.818Z,56.23
2022-11-12T02:35:25.895Z,56.02
2022-11-12T02:37:54.268Z,56.09
2022-11-12T02:40:21.445Z,56.25
2022-11-12T02:42:48.398Z,56.47
2022-11-12T02:45:16.191Z,56.68
2022-11-12T02:47:43.368Z,56.38
2022-11-12T02:50:11.242Z,56.34
2022-11-12T02:52:39.727Z,56.34
2022-11-12T02:55:09.755Z,56.43
2022-11-12T02:57:38.467Z,56.25
2022-11-12T03:00:10.115Z,55.94
2022-11-12T03:02:43.211Z,56.13
2022-11-12T03:05:11.247Z,55.99
2022-11-12T03:07:38.715Z,56.25
2022-11-12T03:10:08.476Z,56.20
2022-11-12T03:12:35.423Z,55.98
2022-11-12T03:15:02.396Z,55.66
2022-11-12T03:17:30.193Z,55.78
2022-11-12T03:19:57.111Z,55.61
2022-11-12T03:22:24.036Z,55.89
2022-11-12T03:24:50.964Z,55.83
2022-11-12T03:27:19.253Z,55.76
2022-11-12T03:29:46.220Z,55.75
2022-11-12T03:32:13.192Z,55.83
2022-11-12T03:34:40.112Z,55.41
2022-11-12T03:37:09.412Z,55.22
2022-11-12T03:39:36.634Z,55.13
2022-11-12T03:42:03.917Z,55.83
2022-11-12T03:44:32.294Z,55.88
2022-11-12T03:46:59.303Z,55.81
2022-11-12T03:49:26.281Z,56.47
2022-11-12T03:51:53.227Z,56.66
2022-11-12T03:54:20.163Z,56.08
2022-11-12T03:56:47.100Z,56.12
2022-11-12T03:59:14.006Z,56.61
2022-11-12T04:01:42.288Z,56.77
2022-11-12T04:04:09.950Z,56.59
2022-11-12T04:06:55.704Z,56.16
2022-11-12T04:09:22.652Z,56.05
2022-11-12T04:11:49.595Z,55.99
2022-11-12T04:14:16.537Z,56.35
2022-11-12T04:17:03.305Z,56.36
2022-11-12T04:20:08.660Z,56.27
2022-11-12T04:22:35.679Z,56.56
2022-11-12T04:25:21.188Z,56.69
2022-11-12T04:27:48.106Z,56.84
2022-11-12T04:30:18.828Z,56.35
2022-11-12T04:32:50.855Z,56.50
2022-11-12T04:35:20.911Z,57.02
2022-11-12T04:37:48.530Z,56.84
2022-11-12T04:40:37.298Z,56.19
2022-11-12T04:43:26.912Z,57.17
2022-11-12T04:45:55.305Z,56.50
2022-11-12T04:48:25.459Z,56.60
2022-11-12T04:50:57.760Z,56.68
2022-11-12T04:53:25.625Z,56.07
2022-11-12T04:55:55.024Z,55.73
2022-11-12T04:58:22.797Z,56.53
2022-11-12T05:00:51.343Z,56.43
2022-11-12T05:03:18.865Z,56.19
2022-11-12T05:05:47.149Z,56.27
2022-11-12T05:08:14.113Z,56.10
2022-11-12T05:10:41.069Z,55.99
2022-11-12T05:13:08.011Z,56.54
2022-11-12T05:15:34.922Z,57.09
2022-11-12T05:18:01.956Z,57.40
2022-11-12T05:20:28.936Z,57.21
2022-11-12T05:23:06.868Z,57.31
2022-11-12T05:25:35.278Z,57.13
2022-11-12T05:28:02.212Z,57.25
2022-11-12T05:30:29.135Z,57.32
2022-11-12T05:32:56.114Z,57.52
2022-11-12T05:35:23.095Z,56.83
2022-11-12T05:37:50.043Z,57.27
2022-11-12T05:40:18.299Z,56.65
2022-11-12T05:42:45.471Z,56.99
2022-11-12T05:45:13.978Z,57.16
2022-11-12T05:47:40.934Z,57.21
2022-11-12T05:50:08.973Z,57.49
2022-11-12T05:52:36.408Z,57.62
2022-11-12T05:55:03.511Z,57.14
2022-11-12T05:57:31.765Z,56.42
2022-11-12T05:59:58.756Z,57.15
2022-11-12T06:02:25.712Z,57.58
2022-11-12T06:04:52.623Z,57.03
2022-11-12T06:07:19.652Z,56.78
2022-11-12T06:09:46.614Z,56.61
2022-11-12T06:12:13.553Z,56.95
2022-11-12T06:14:41.841Z,57.41
2022-11-12T06:17:08.782Z,56.98
2022-11-12T06:19:35.725Z,56.41
2022-11-12T06:22:02.667Z,56.19
2022-11-12T06:24:35.122Z,57.28
2022-11-12T06:27:02.410Z,57.23
2022-11-12T06:29:30.085Z,56.84
2022-11-12T06:31:58.341Z,56.35
2022-11-12T06:34:25.278Z,56.74
2022-11-12T06:36:52.208Z,56.67
2022-11-12T06:39:19.416Z,57.18
2022-11-12T06:41:46.328Z,57.41
2022-11-12T06:44:15.594Z,56.48
2022-11-12T06:46:46.190Z,56.42
2022-11-12T06:49:14.570Z,56.39
2022-11-12T06:51:41.574Z,56.69
2022-11-12T06:54:08.509Z,56.17
2022-11-12T06:56:35.422Z,56.22
2022-11-12T06:59:02.559Z,56.64
2022-11-12T07:01:29.484Z,56.42
2022-11-12T07:03:56.501Z,56.33
2022-11-12T07:06:24.832Z,56.75
2022-11-12T07:08:51.759Z,56.19
2022-11-12T07:11:19.963Z,56.36
2022-11-12T07:13:48.032Z,56.68
2022-11-12T07:16:18.480Z,56.33
2022-11-12T07:18:46.839Z,56.59
2022-11-12T07:21:16.424Z,56.12
2022-11-12T07:23:46.402Z,56.27
2022-11-12T07:26:17.727Z,56.48
2022-11-12T07:28:45.340Z,55.60
2022-11-12T07:31:15.303Z,55.61
2022-11-12T07:33:43.053Z,55.48
2022-11-12T07:36:12.835Z,55.47
2022-11-12T07:38:41.981Z,54.85
2022-11-12T07:41:14.599Z,55.12
2022-11-12T07:43:44.522Z,55.11
2022-11-12T07:46:15.434Z,54.98
2022-11-12T07:48:44.473Z,55.05
2022-11-12T07:51:15.110Z,54.93
2022-11-12T07:53:43.628Z,54.80
2022-11-12T07:56:15.056Z,54.75
2022-11-12T07:58:42.564Z,55.03
2022-11-12T08:01:23.193Z,55.13
2022-11-12T08:03:50.240Z,54.82
2022-11-12T08:06:17.171Z,55.66
2022-11-12T08:08:44.074Z,55.46
2022-11-12T08:11:12.411Z,55.16
2022-11-12T08:13:39.386Z,55.20
2022-11-12T08:16:07.214Z,55.28
2022-11-12T08:18:34.224Z,55.13
2022-11-12T08:21:01.638Z,55.87
2022-11-12T08:23:29.357Z,55.64
2022-11-12T08:25:58.808Z,55.00
2022-11-12T08:28:29.369Z,54.79
2022-11-12T08:30:57.691Z,55.37
2022-11-12T08:33:24.790Z,56.21
2022-11-12T08:35:51.691Z,56.34
2022-11-12T08:38:18.760Z,56.15
2022-11-12T08:40:45.699Z,55.60
2022-11-12T08:43:12.679Z,55.39
2022-11-12T08:45:42.435Z,55.46
2022-11-12T08:48:14.217Z,55.09
2022-11-12T08:50:41.821Z,54.60
2022-11-12T08:53:11.443Z,54.73
2022-11-12T08:55:38.674Z,54.17
2022-11-12T08:58:06.460Z,54.01
2022-11-12T09:00:39.662Z,54.36
2022-11-12T09:03:14.019Z,54.45
2022-11-12T09:05:41.721Z,54.30
2022-11-12T09:08:11.230Z,54.04
2022-11-12T09:10:38.922Z,53.69
2022-11-12T09:13:06.298Z,53.54
2022-11-12T09:15:38.398Z,53.23
2022-11-12T09:18:12.579Z,53.39
2022-11-12T09:20:40.022Z,52.87
2022-11-12T09:23:12.672Z,52.76
2022-11-12T09:25:40.637Z,51.54
2022-11-12T09:28:10.010Z,50.28
2022-11-12T09:30:38.009Z,49.72
2022-11-12T09:33:05.324Z,49.32
2022-11-12T09:35:33.841Z,48.64
2022-11-12T09:38:00.849Z,48.08
2022-11-12T09:40:46.037Z,48.25
2022-11-12T09:43:24.819Z,47.94
2022-11-12T09:46:21.475Z,47.98
2022-11-12T09:48:51.727Z,47.23
2022-11-12T09:51:27.167Z,47.45
2022-11-12T09:53:57.752Z,46.52
2022-11-12T09:56:28.242Z,47.21
2022-11-12T09:58:55.612Z,46.94
2022-11-12T10:01:38.704Z,46.70
2022-11-12T10:04:28.149Z,45.86
2022-11-12T10:07:06.135Z,45.42
2022-11-12T10:09:48.076Z,44.64
2022-11-12T10:12:31.521Z,44.71
2022-11-12T10:15:55.629Z,44.50
2022-11-12T10:18:39.580Z,44.72
2022-11-12T10:21:22.775Z,44.69
2022-11-12T10:23:53.760Z,44.67
2022-11-12T10:26:24.796Z,44.84
2022-11-12T10:28:57.861Z,44.87
2022-11-12T10:31:24.923Z,45.07
2022-11-12T10:34:02.167Z,44.91
2022-11-12T10:36:33.859Z,44.81
2022-11-12T10:39:02.260Z,44.91
2022-11-12T10:41:32.423Z,44.69
2022-11-12T10:44:02.444Z,44.73
2022-11-12T10:46:33.075Z,44.83
2022-11-12T10:49:03.466Z,44.92
2022-11-12T10:51:33.182Z,44.74
2022-11-12T10:54:20.736Z,44.73
2022-11-12T10:56:55.103Z,44.96
2022-11-12T10:59:24.393Z,44.99
2022-11-12T11:01:57.585Z,45.04
2022-11-12T11:04:35.832Z,45.01
2022-11-12T11:07:06.879Z,45.47
2022-11-12T11:09:35.623Z,45.63
2022-11-12T11:12:03.242Z,45.70
2022-11-12T11:14:34.120Z,45.97
2022-11-12T11:17:08.585Z,45.83
2022-11-12T11:19:39.619Z,45.94
2022-11-12T11:22:35.197Z,45.67
2022-11-12T11:25:23.021Z,45.27
2022-11-12T11:28:05.212Z,45.12
2022-11-12T11:30:33.557Z,44.91
2022-11-12T11:33:25.636Z,45.12
2022-11-12T11:36:21.944Z,44.98
2022-11-12T11:38:59.722Z,44.98
2022-11-12T11:41:47.100Z,44.71
2022-11-12T11:44:31.577Z,44.65
2022-11-12T11:47:19.511Z,44.58
2022-11-12T11:50:16.371Z,44.94
2022-11-12T11:52:53.800Z,44.52
2022-11-12T11:55:37.065Z,44.45
2022-11-12T11:58:52.231Z,44.14
2022-11-12T12:01:31.359Z,44.08
2022-11-12T12:04:32.906Z,43.72
2022-11-12T12:07:17.986Z,43.57
2022-11-12T12:09:53.162Z,43.41
2022-11-12T12:12:40.231Z,43.53
2022-11-12T12:15:36.821Z,43.47
2022-11-12T12:18:16.296Z,42.59
2022-11-12T12:20:53.952Z,42.72
2022-11-12T12:23:30.107Z,43.14
2022-11-12T12:26:01.192Z,43.31
2022-11-12T12:28:40.064Z,43.04
2022-11-12T12:31:17.047Z,43.07
2022-11-12T12:33:51.555Z,42.95
2022-11-12T12:36:26.896Z,43.05
2022-11-12T12:39:04.866Z,43.23
2022-11-12T12:41:42.604Z,42.39
2022-11-12T12:44:11.099Z,42.70
2022-11-12T12:46:44.475Z,42.29
2022-11-12T12:49:19.048Z,42.27
2022-11-12T12:51:47.081Z,42.45
2022-11-12T12:54:57.381Z,42.54
2022-11-12T12:57:34.849Z,42.38
2022-11-12T13:00:31.760Z,42.14
2022-11-12T13:03:00.848Z,42.66
2022-11-12T13:05:32.168Z,42.30
2022-11-12T13:08:05.896Z,42.22
2022-11-12T13:10:53.901Z,42.56
2022-11-12T13:13:32.339Z,42.60
2022-11-12T13:16:02.142Z,42.83
2022-11-12T13:19:02.021Z,43.08
2022-11-12T13:21:30.297Z,43.23
2022-11-12T13:24:09.082Z,43.36
2022-11-12T13:26:52.669Z,43.35
2022-11-12T13:29:42.950Z,43.42
2022-11-12T13:32:33.978Z,43.85
2022-11-12T13:35:30.067Z,44.18
2022-11-12T13:38:01.823Z,44.29
2022-11-12T13:40:43.889Z,44.09
2022-11-12T13:43:23.066Z,44.24
2022-11-12T13:45:57.561Z,44.25
2022-11-12T13:48:29.800Z,44.54
2022-11-12T13:51:06.083Z,44.52
2022-11-12T13:53:33.267Z,44.60
2022-11-12T13:56:00.436Z,44.41
2022-11-12T13:58:30.875Z,44.60
2022-11-12T14:01:01.288Z,44.74
2022-11-12T14:03:36.601Z,44.38
2022-11-12T14:06:15.149Z,44.25
2022-11-12T14:09:29.614Z,44.72
2022-11-12T14:12:26.619Z,44.93
2022-11-12T14:15:18.544Z,44.92
2022-11-12T14:18:00.028Z,44.90
2022-11-12T14:20:33.118Z,45.19
2022-11-12T14:23:13.860Z,44.99
2022-11-12T14:25:49.210Z,45.25
2022-11-12T14:28:27.971Z,45.01
2022-11-12T14:30:56.427Z,45.41
2022-11-12T14:33:26.724Z,45.26
2022-11-12T14:35:59.367Z,45.52
2022-11-12T14:38:33.232Z,45.64
2022-11-12T14:41:07.724Z,45.75
2022-11-12T14:43:41.383Z,45.76
2022-11-12T14:46:21.125Z,45.91
2022-11-12T14:48:53.563Z,46.25
2022-11-12T14:51:24.547Z,46.12
2022-11-12T14:53:58.868Z,45.98
2022-11-12T14:56:35.790Z,46.04
2022-11-12T14:59:04.241Z,46.48
2022-11-12T15:02:14.491Z,46.55
2022-11-12T15:04:25.734Z,46.94
2022-11-12T15:06:55.033Z,46.97
2022-11-12T15:09:36.194Z,47.09
2022-11-12T15:12:08.914Z,47.40
2022-11-12T15:14:36.355Z,47.11
2022-11-12T15:17:05.934Z,47.55
2022-11-12T15:19:35.174Z,47.53
2022-11-12T15:22:08.770Z,47.62
2022-11-12T15:24:38.956Z,47.66
2022-11-12T15:27:34.173Z,47.90
2022-11-12T15:30:16.296Z,48.24
2022-11-12T15:32:44.425Z,48.37
2022-11-12T15:35:33.196Z,48.56
2022-11-12T15:38:05.542Z,48.89
2022-11-12T15:40:46.046Z,48.93
2022-11-12T15:43:16.859Z,48.78
2022-11-12T15:45:48.695Z,49.22
2022-11-12T15:48:15.732Z,49.00
2022-11-12T15:50:42.924Z,49.29
2022-11-12T15:53:10.012Z,49.25
2022-11-12T15:55:39.964Z,49.27
2022-11-12T15:58:15.697Z,49.16
2022-11-12T16:00:43.000Z,49.53
2022-11-12T16:03:15.370Z,49.31
2022-11-12T16:05:45.278Z,49.50
2022-11-12T16:08:13.114Z,49.12
2022-11-12T16:10:45.272Z,49.28
2022-11-12T16:13:16.505Z,49.31
2022-11-12T16:15:43.541Z,49.44
2022-11-12T16:18:14.550Z,49.50
2022-11-12T16:20:41.532Z,50.05
2022-11-12T16:23:08.990Z,50.42
2022-11-12T16:25:40.506Z,50.28
2022-11-12T16:28:15.886Z,50.50
2022-11-12T16:30:45.378Z,50.15
2022-11-12T16:33:13.588Z,50.50
2022-11-12T16:35:41.366Z,50.41
2022-11-12T16:38:14.743Z,50.56
2022-11-12T16:40:42.857Z,50.84
2022-11-12T16:43:11.223Z,50.80
2022-11-12T16:45:41.656Z,51.13
2022-11-12T16:48:17.046Z,51.27
2022-11-12T16:50:45.281Z,51.50
2022-11-12T16:53:13.392Z,51.80
2022-11-12T16:55:41.017Z,51.83
2022-11-12T16:58:13.753Z,51.78
2022-11-12T17:00:43.960Z,51.47
2022-11-12T17:03:13.818Z,51.30
2022-11-12T17:05:40.834Z,51.51
2022-11-12T17:08:11.023Z,51.27
2022-11-12T17:10:38.500Z,51.27
2022-11-12T17:13:05.503Z,51.42
2022-11-12T17:15:33.858Z,51.13
2022-11-12T17:18:00.786Z,51.50
2022-11-12T17:20:27.825Z,51.40
2022-11-12T17:22:54.811Z,51.49
2022-11-12T17:25:21.799Z,51.60
2022-11-12T17:27:48.761Z,51.32
2022-11-12T17:30:16.013Z,51.70
2022-11-12T17:32:44.393Z,51.65
2022-11-12T17:35:18.144Z,51.39
2022-11-12T17:37:45.126Z,51.61
2022-11-12T17:40:12.216Z,51.88
2022-11-12T17:42:49.915Z,52.03
2022-11-12T17:45:17.317Z,51.97
2022-11-12T17:47:46.823Z,51.86
2022-11-12T17:50:14.011Z,52.15
2022-11-12T17:52:40.947Z,52.35
2022-11-12T17:55:09.172Z,52.71
2022-11-12T17:57:36.259Z,52.58
2022-11-12T18:00:04.874Z,52.63
2022-11-12T18:02:32.146Z,53.14
2022-11-12T18:05:01.485Z,52.81
2022-11-12T18:07:28.526Z,52.79
2022-11-12T18:09:55.488Z,53.19
2022-11-12T18:12:22.439Z,53.00
2022-11-12T18:14:49.439Z,53.00
2022-11-12T18:17:16.584Z,53.28
2022-11-12T18:19:43.563Z,53.16
2022-11-12T18:22:15.306Z,53.20
2022-11-12T18:24:42.437Z,53.45
2022-11-12T18:27:09.422Z,53.51
2022-11-12T18:29:36.419Z,53.85
2022-11-12T18:32:03.787Z,53.86
2022-11-12T18:34:30.906Z,53.78
2022-11-12T18:36:58.112Z,53.66
2022-11-12T18:39:26.552Z,53.81
2022-11-12T18:41:54.772Z,53.71
2022-11-12T18:44:25.912Z,53.70
2022-11-12T18:46:53.397Z,53.77
2022-11-12T18:49:20.461Z,53.77
2022-11-12T18:51:47.500Z,53.94
2022-11-12T18:54:16.100Z,54.06
2022-11-12T18:56:44.381Z,53.98
2022-11-12T18:59:14.375Z,54.05
2022-11-12T19:01:41.387Z,54.08
2022-11-12T19:04:11.396Z,54.18
2022-11-12T19:06:38.426Z,54.22
2022-11-12T19:09:05.893Z,53.96
2022-11-12T19:11:32.991Z,53.94
2022-11-12T19:14:01.344Z,54.24
2022-11-12T19:16:28.388Z,54.26
2022-11-12T19:18:55.792Z,54.06
2022-11-12T19:21:26.094Z,54.21
2022-11-12T19:23:54.998Z,54.00
2022-11-12T19:26:23.593Z,54.17
2022-11-12T19:28:50.789Z,54.35
2022-11-12T19:31:21.599Z,54.20
2022-11-12T19:33:48.986Z,54.55
2022-11-12T19:36:20.655Z,54.53
2022-11-12T19:38:47.918Z,54.76
2022-11-12T19:41:19.673Z,54.65
2022-11-12T19:43:47.762Z,54.90
2022-11-12T19:46:15.449Z,55.47
2022-11-12T19:48:44.335Z,55.55
2022-11-12T19:51:13.255Z,55.73
2022-11-12T19:53:44.347Z,56.02
2022-11-12T19:56:14.148Z,56.29
2022-11-12T19:58:45.135Z,56.52
2022-11-12T20:01:14.758Z,56.92
2022-11-12T20:03:43.346Z,56.68
2022-11-12T20:06:12.954Z,56.69
2022-11-12T20:08:40.384Z,56.58
2022-11-12T20:11:07.739Z,56.71
2022-11-12T20:13:34.765Z,56.82
2022-11-12T20:16:07.056Z,56.57
2022-11-12T20:18:34.227Z,56.87
2022-11-12T20:21:05.613Z,56.67
2022-11-12T20:23:34.228Z,56.22
2022-11-12T20:26:07.768Z,56.81
2022-11-12T20:28:35.134Z,57.00
2022-11-12T20:31:05.657Z,56.84
2022-11-12T20:33:35.511Z,56.95
2022-11-12T20:36:09.772Z,56.44
2022-11-12T20:38:37.745Z,56.46
2022-11-12T20:41:06.380Z,56.42
2022-11-12T20:43:34.157Z,56.61
2022-11-12T20:46:01.274Z,56.29
2022-11-12T20:48:28.956Z,56.27
2022-11-12T20:51:23.062Z,56.09
2022-11-12T20:53:58.724Z,55.63
2022-11-12T20:56:28.947Z,55.71
2022-11-12T20:58:56.208Z,55.63
2022-11-12T21:01:26.100Z,55.37
2022-11-12T21:03:53.381Z,55.29
2022-11-12T21:06:24.945Z,55.02
2022-11-12T21:08:52.390Z,55.09
2022-11-12T21:11:22.327Z,55.20
2022-11-12T21:13:49.565Z,55.49
2022-11-12T21:16:16.640Z,55.85
2022-11-12T21:18:44.108Z,55.75
2022-11-12T21:21:13.799Z,55.29
2022-11-12T21:23:44.529Z,55.99
2022-11-12T21:26:13.836Z,55.68
2022-11-12T21:28:43.575Z,55.53
2022-11-12T21:31:13.500Z,55.58
2022-11-12T21:33:41.326Z,55.85
2022-11-12T21:36:14.814Z,55.91
2022-11-12T21:38:44.880Z,55.97
2022-11-12T21:41:14.603Z,55.60
2022-11-12T21:43:44.482Z,55.43
2022-11-12T21:46:14.893Z,55.34
2022-11-12T21:48:42.543Z,55.29
2022-11-12T21:51:12.981Z,55.08
2022-11-12T21:53:41.257Z,55.27
2022-11-12T21:56:12.640Z,55.87
2022-11-12T21:58:39.631Z,55.57
2022-11-12T22:01:09.833Z,55.42
2022-11-12T22:03:38.041Z,55.51
2022-11-12T22:06:06.712Z,56.01
2022-11-12T22:08:34.013Z,55.80
2022-11-12T22:11:03.459Z,55.58
2022-11-12T22:13:32.431Z,55.77
2022-11-12T22:16:04.673Z,55.90
2022-11-12T22:18:34.082Z,55.56
2022-11-12T22:21:03.993Z,55.58
2022-11-12T22:23:35.924Z,55.41
2022-11-12T22:26:05.152Z,55.60
2022-11-12T22:28:34.330Z,55.53
2022-11-12T22:31:05.857Z,55.16
2022-11-12T22:33:33.146Z,55.44
2022-11-12T22:36:02.397Z,55.31
2022-11-12T22:38:34.095Z,55.12
2022-11-12T22:41:03.498Z,55.20
2022-11-12T22:43:30.552Z,54.87
2022-11-12T22:46:05.078Z,54.79
2022-11-12T22:48:32.197Z,54.45
2022-11-12T22:51:00.587Z,54.69
2022-11-12T22:53:28.171Z,54.38
2022-11-12T22:55:55.363Z,54.47
2022-11-12T22:58:22.383Z,54.41
2022-11-12T23:00:49.544Z,54.67
2022-11-12T23:03:17.944Z,54.70
2022-11-12T23:05:44.944Z,54.91
2022-11-12T23:08:12.165Z,54.53
2022-11-12T23:10:44.468Z,54.71
2022-11-12T23:13:12.647Z,54.50
2022-11-12T23:15:42.672Z,54.54
2022-11-12T23:18:09.771Z,54.49
2022-11-12T23:20:38.291Z,54.69
2022-11-12T23:23:05.403Z,54.70
2022-11-12T23:25:33.884Z,54.95
2022-11-12T23:28:01.038Z,54.95
2022-11-12T23:30:28.100Z,54.75
2022-11-12T23:32:55.093Z,54.82
2022-11-12T23:35:22.075Z,54.85
2022-11-12T23:37:51.857Z,54.62
2022-11-12T23:40:18.939Z,54.81
2022-11-12T23:42:46.014Z,54.73
2022-11-12T23:45:13.181Z,54.86
2022-11-12T23:47:40.127Z,54.64
2022-11-12T23:50:08.303Z,54.97
2022-11-12T23:52:35.223Z,54.91
2022-11-12T23:55:04.301Z,54.82
2022-11-12T23:57:32.839Z,54.60
2022-11-12T23:59:59.780Z,54.69
